createdAt,value
2018-09-28T00:01:08.305Z,99.90
2018-09-28T00:03:36.718Z,99.90
2018-09-28T00:06:05.119Z,99.90
2018-09-28T00:08:33.582Z,99.90
2018-09-28T00:11:02.003Z,99.90
2018-09-28T00:13:30.442Z,99.90
2018-09-28T00:15:58.850Z,99.90
2018-09-28T00:18:27.527Z,99.90
2018-09-28T00:20:56.696Z,99.90
2018-09-28T00:23:25.153Z,99.90
2018-09-28T00:25:53.613Z,99.90
2018-09-28T00:28:22.055Z,99.90
2018-09-28T00:30:50.429Z,99.90
2018-09-28T00:33:18.855Z,99.90
2018-09-28T00:35:47.282Z,99.90
2018-09-28T00:38:15.674Z,99.90
2018-09-28T00:40:44.082Z,99.90
2018-09-28T00:43:12.506Z,99.90
2018-09-28T00:45:40.891Z,99.90
2018-09-28T00:48:09.307Z,99.90
2018-09-28T00:50:37.747Z,99.90
2018-09-28T00:53:06.227Z,99.90
2018-09-28T00:55:34.697Z,99.90
2018-09-28T00:58:03.119Z,99.90
2018-09-28T01:00:31.554Z,99.90
2018-09-28T01:02:59.934Z,99.90
2018-09-28T01:05:28.353Z,99.90
2018-09-28T01:07:56.860Z,99.90
2018-09-28T01:10:25.251Z,99.90
2018-09-28T01:12:53.729Z,99.90
2018-09-28T01:15:22.121Z,99.90
2018-09-28T01:17:50.553Z,99.90
2018-09-28T01:20:18.994Z,99.90
2018-09-28T01:22:47.403Z,99.90
2018-09-28T01:25:15.859Z,99.90
2018-09-28T01:27:44.337Z,99.90
2018-09-28T01:30:12.768Z,99.90
2018-09-28T01:32:41.157Z,99.90
2018-09-28T01:35:09.587Z,99.90
2018-09-28T01:37:38.002Z,99.90
2018-09-28T01:40:06.410Z,99.90
2018-09-28T01:42:34.827Z,99.90
2018-09-28T01:45:03.319Z,99.90
2018-09-28T01:47:31.726Z,99.90
2018-09-28T01:50:00.150Z,99.90
2018-09-28T01:52:28.557Z,99.90
2018-09-28T01:54:56.982Z,99.90
2018-09-28T01:57:25.369Z,99.90
2018-09-28T01:59:53.763Z,99.90
2018-09-28T02:02:22.150Z,99.90
2018-09-28T02:04:50.590Z,99.90
2018-09-28T02:07:19.031Z,99.90
2018-09-28T02:09:47.436Z,99.90
2018-09-28T02:12:15.932Z,99.90
2018-09-28T02:14:44.358Z,99.90
2018-09-28T02:17:12.834Z,99.90
2018-09-28T02:19:41.247Z,99.90
2018-09-28T02:22:09.663Z,99.90
2018-09-28T02:24:38.094Z,99.90
2018-09-28T02:27:06.690Z,99.90
2018-09-28T02:29:35.077Z,99.90
2018-09-28T02:32:03.529Z,99.90
2018-09-28T02:34:31.921Z,99.90
2018-09-28T02:37:00.322Z,99.90
2018-09-28T02:39:28.724Z,99.90
2018-09-28T02:41:57.117Z,99.90
2018-09-28T02:44:25.589Z,99.90
2018-09-28T02:46:54.033Z,99.90
2018-09-28T02:49:22.641Z,99.90
2018-09-28T02:51:51.082Z,99.90
2018-09-28T02:54:19.542Z,99.90
2018-09-28T02:56:47.997Z,99.90
2018-09-28T02:59:16.393Z,99.90
2018-09-28T03:01:44.843Z,99.90
2018-09-28T03:04:13.218Z,99.90
2018-09-28T03:06:41.708Z,99.90
2018-09-28T03:09:10.791Z,99.90
2018-09-28T03:11:39.353Z,99.90
2018-09-28T03:14:07.819Z,99.90
2018-09-28T03:16:36.218Z,99.90
2018-09-28T03:19:04.613Z,99.90
2018-09-28T03:21:33.038Z,99.90
2018-09-28T03:24:01.499Z,99.90
2018-09-28T03:26:29.938Z,99.90
2018-09-28T03:28:58.355Z,99.90
2018-09-28T03:31:26.795Z,99.90
2018-09-28T03:33:55.234Z,99.90
2018-09-28T03:36:23.632Z,99.90
2018-09-28T03:38:52.071Z,99.90
2018-09-28T03:41:20.591Z,99.90
2018-09-28T03:43:49.036Z,99.90
2018-09-28T03:46:17.456Z,99.90
2018-09-28T03:48:45.847Z,99.90
2018-09-28T03:51:14.298Z,99.90
2018-09-28T03:53:42.679Z,99.90
2018-09-28T03:56:11.122Z,99.90
2018-09-28T03:58:39.506Z,99.90
2018-09-28T04:01:07.984Z,99.90
2018-09-28T04:03:36.386Z,99.90
2018-09-28T04:06:04.871Z,99.90
2018-09-28T04:08:33.260Z,99.90
2018-09-28T04:11:01.716Z,99.90
2018-09-28T04:13:30.160Z,99.90
2018-09-28T04:15:58.606Z,99.90
2018-09-28T04:18:27.006Z,99.90
2018-09-28T04:20:55.409Z,99.90
2018-09-28T04:23:23.840Z,99.90
2018-09-28T04:25:52.267Z,99.90
2018-09-28T04:28:20.694Z,99.90
2018-09-28T04:30:49.123Z,99.90
2018-09-28T04:33:17.543Z,99.90
2018-09-28T04:35:45.961Z,99.90
2018-09-28T04:38:14.369Z,99.90
2018-09-28T04:40:42.818Z,99.90
2018-09-28T04:43:11.258Z,99.90
2018-09-28T04:45:39.746Z,99.90
2018-09-28T04:48:08.240Z,99.90
2018-09-28T04:50:36.639Z,99.90
2018-09-28T04:53:05.099Z,99.90
2018-09-28T04:55:33.612Z,99.90
2018-09-28T04:58:02.067Z,99.90
2018-09-28T05:00:30.485Z,99.90
2018-09-28T05:02:59.030Z,99.90
2018-09-28T05:05:27.489Z,99.90
2018-09-28T05:07:55.887Z,99.90
2018-09-28T05:10:24.731Z,99.90
2018-09-28T05:12:53.200Z,99.90
2018-09-28T05:15:21.616Z,99.90
2018-09-28T05:17:50.045Z,99.90
2018-09-28T05:20:18.439Z,99.90
2018-09-28T05:22:46.906Z,99.90
2018-09-28T05:25:15.394Z,99.90
2018-09-28T05:27:43.858Z,99.90
2018-09-28T05:30:12.259Z,99.90
2018-09-28T05:32:40.915Z,99.90
2018-09-28T05:35:09.249Z,99.90
2018-09-28T05:37:37.685Z,99.90
2018-09-28T05:40:06.091Z,99.90
2018-09-28T05:42:34.517Z,99.90
2018-09-28T05:45:02.951Z,99.90
2018-09-28T05:47:31.382Z,99.90
2018-09-28T05:49:59.940Z,99.90
2018-09-28T05:52:28.359Z,99.90
2018-09-28T05:54:56.781Z,99.90
2018-09-28T05:57:25.216Z,99.90
2018-09-28T06:02:05.060Z,99.90
2018-09-28T06:04:38.882Z,99.90
2018-09-28T06:07:07.324Z,99.90
2018-09-28T06:09:35.762Z,99.90
2018-09-28T06:12:04.189Z,99.90
2018-09-28T06:14:32.607Z,99.90
2018-09-28T06:17:01.147Z,99.90
2018-09-28T06:19:29.594Z,99.90
2018-09-28T06:21:58.063Z,99.90
2018-09-28T06:24:26.674Z,99.90
2018-09-28T06:26:55.044Z,99.90
2018-09-28T06:29:23.642Z,99.90
2018-09-28T06:31:52.089Z,99.90
2018-09-28T06:34:20.540Z,99.90
2018-09-28T06:36:48.941Z,99.90
2018-09-28T06:39:17.382Z,99.90
2018-09-28T06:41:45.847Z,99.90
2018-09-28T06:44:14.282Z,99.90
2018-09-28T06:46:42.689Z,99.90
2018-09-28T06:49:11.941Z,99.90
2018-09-28T06:51:40.342Z,99.90
2018-09-28T06:54:08.798Z,99.90
2018-09-28T06:56:37.162Z,99.90
2018-09-28T06:59:05.638Z,99.90
2018-09-28T07:01:34.070Z,99.90
2018-09-28T07:04:03.272Z,99.90
2018-09-28T07:06:31.963Z,99.90
2018-09-28T07:09:00.389Z,99.90
2018-09-28T07:11:28.826Z,99.90
2018-09-28T07:13:57.218Z,99.90
2018-09-28T07:16:25.723Z,99.90
2018-09-28T07:18:54.168Z,99.90
2018-09-28T07:21:22.619Z,99.90
2018-09-28T07:23:51.111Z,99.90
2018-09-28T07:26:19.491Z,99.90
2018-09-28T07:28:47.930Z,99.90
2018-09-28T07:31:16.906Z,99.90
2018-09-28T07:33:46.127Z,99.90
2018-09-28T07:36:14.680Z,99.90
2018-09-28T07:38:43.139Z,99.90
2018-09-28T07:41:11.598Z,99.90
2018-09-28T07:43:40.143Z,99.90
2018-09-28T07:46:08.669Z,99.90
2018-09-28T07:48:37.162Z,99.90
2018-09-28T07:51:05.648Z,99.90
2018-09-28T07:53:34.108Z,99.90
2018-09-28T07:56:02.524Z,99.90
2018-09-28T07:58:30.914Z,99.90
2018-09-28T08:00:59.420Z,99.90
2018-09-28T08:03:29.119Z,99.90
2018-09-28T08:05:59.058Z,99.90
2018-09-28T08:08:27.455Z,99.90
2018-09-28T08:10:55.876Z,99.90
2018-09-28T08:13:24.828Z,99.90
2018-09-28T08:15:53.915Z,99.90
2018-09-28T08:18:23.090Z,99.90
2018-09-28T08:20:51.885Z,99.90
2018-09-28T08:23:20.388Z,99.90
2018-09-28T08:25:48.975Z,99.90
2018-09-28T08:28:17.426Z,99.90
2018-09-28T08:30:45.855Z,99.90
2018-09-28T08:33:14.306Z,99.90
2018-09-28T08:35:42.763Z,99.90
2018-09-28T08:38:11.198Z,99.90
2018-09-28T08:40:39.627Z,99.90
2018-09-28T08:43:08.051Z,99.90
2018-09-28T08:45:36.492Z,99.90
2018-09-28T08:48:05.278Z,99.90
2018-09-28T08:50:33.688Z,99.90
2018-09-28T08:53:02.130Z,99.90
2018-09-28T08:55:30.851Z,99.90
2018-09-28T08:57:59.243Z,99.90
2018-09-28T09:00:27.720Z,99.90
2018-09-28T09:02:56.185Z,99.90
2018-09-28T09:05:24.614Z,99.90
2018-09-28T09:07:53.079Z,99.90
2018-09-28T09:10:21.510Z,99.90
2018-09-28T09:12:50.055Z,99.90
2018-09-28T09:15:18.503Z,99.90
2018-09-28T09:17:47.636Z,99.90
2018-09-28T09:20:16.031Z,99.90
2018-09-28T09:22:44.497Z,99.90
2018-09-28T09:25:12.967Z,99.90
2018-09-28T09:27:41.387Z,99.90
2018-09-28T09:30:09.887Z,99.90
2018-09-28T09:32:38.322Z,99.90
2018-09-28T09:35:06.868Z,99.90
2018-09-28T09:37:35.321Z,99.90
2018-09-28T09:40:03.821Z,99.90
2018-09-28T09:42:32.384Z,99.90
2018-09-28T09:45:00.852Z,99.90
2018-09-28T09:47:29.300Z,99.90
2018-09-28T09:49:58.558Z,99.90
2018-09-28T09:52:26.981Z,99.90
2018-09-28T09:54:55.379Z,99.90
2018-09-28T09:57:23.834Z,99.90
2018-09-28T09:59:52.320Z,99.90
2018-09-28T10:02:25.966Z,99.90
2018-09-28T10:04:54.457Z,99.90
2018-09-28T10:07:22.889Z,98.40
2018-09-28T10:09:51.313Z,98.70
2018-09-28T10:12:19.851Z,99.20
2018-09-28T10:14:48.221Z,99.50
2018-09-28T10:17:16.763Z,99.80
2018-09-28T10:19:45.368Z,98.00
2018-09-28T10:22:13.762Z,96.90
2018-09-28T10:24:42.214Z,97.20
2018-09-28T10:27:10.740Z,97.70
2018-09-28T10:29:39.111Z,97.60
2018-09-28T10:32:07.563Z,95.70
2018-09-28T10:34:36.032Z,96.30
2018-09-28T10:37:04.407Z,96.90
2018-09-28T10:39:32.850Z,95.70
2018-09-28T10:42:01.272Z,95.60
2018-09-28T10:44:29.800Z,95.50
2018-09-28T10:46:58.403Z,97.20
2018-09-28T10:49:27.062Z,96.80
2018-09-28T10:51:55.689Z,98.10
2018-09-28T10:54:24.079Z,96.70
2018-09-28T10:56:52.523Z,95.60
2018-09-28T10:59:20.902Z,95.60
2018-09-28T11:01:49.474Z,95.40
2018-09-28T11:04:18.084Z,94.60
2018-09-28T11:06:46.819Z,94.20
2018-09-28T11:09:15.414Z,93.80
2018-09-28T11:11:44.104Z,93.40
2018-09-28T11:14:12.631Z,93.60
2018-09-28T11:16:41.351Z,94.00
2018-09-28T11:19:09.783Z,94.80
2018-09-28T11:21:38.248Z,93.00
2018-09-28T11:24:06.725Z,91.20
2018-09-28T11:26:35.158Z,90.10
2018-09-28T11:29:03.628Z,87.50
2018-09-28T11:31:32.115Z,89.70
2018-09-28T11:34:00.804Z,91.30
2018-09-28T11:36:29.340Z,93.50
2018-09-28T11:38:57.801Z,92.30
2018-09-28T11:41:26.239Z,90.50
2018-09-28T11:43:54.691Z,90.70
2018-09-28T11:46:23.118Z,89.00
2018-09-28T11:48:51.583Z,88.80
2018-09-28T11:51:20.031Z,90.60
2018-09-28T11:53:48.412Z,90.40
2018-09-28T11:56:16.923Z,91.00
2018-09-28T11:58:45.375Z,86.90
2018-09-28T12:01:13.840Z,86.80
2018-09-28T12:03:42.552Z,88.70
2018-09-28T12:06:10.944Z,80.30
2018-09-28T12:08:39.366Z,80.50
2018-09-28T12:11:07.872Z,75.50
2018-09-28T12:13:36.301Z,84.40
2018-09-28T12:16:04.686Z,88.40
2018-09-28T12:18:33.197Z,80.30
2018-09-28T12:21:01.736Z,81.70
2018-09-28T12:23:30.258Z,82.40
2018-09-28T12:25:58.698Z,84.60
2018-09-28T12:28:27.194Z,87.90
2018-09-28T12:30:55.869Z,86.70
2018-09-28T12:33:24.373Z,87.10
2018-09-28T12:35:53.209Z,87.70
2018-09-28T12:38:21.856Z,87.90
2018-09-28T12:40:50.349Z,86.80
2018-09-28T12:43:19.072Z,82.40
2018-09-28T12:45:47.683Z,83.70
2018-09-28T12:48:16.327Z,78.60
2018-09-28T12:50:44.960Z,76.80
2018-09-28T12:53:13.377Z,76.60
2018-09-28T12:55:41.803Z,77.90
2018-09-28T12:58:10.313Z,79.70
2018-09-28T13:00:38.785Z,79.20
2018-09-28T13:03:07.222Z,81.20
2018-09-28T13:05:35.668Z,80.30
2018-09-28T13:08:04.183Z,79.70
2018-09-28T13:10:32.615Z,79.20
2018-09-28T13:13:01.051Z,76.30
2018-09-28T13:15:29.589Z,80.00
2018-09-28T13:17:58.021Z,82.90
2018-09-28T13:20:26.446Z,83.40
2018-09-28T13:22:54.941Z,83.40
2018-09-28T13:25:23.405Z,84.90
2018-09-28T13:27:51.851Z,85.80
2018-09-28T13:30:20.433Z,84.70
2018-09-28T13:32:52.233Z,87.60
2018-09-28T13:35:20.767Z,87.60
2018-09-28T13:37:49.210Z,86.90
2018-09-28T13:40:17.707Z,88.80
2018-09-28T13:42:46.232Z,88.30
2018-09-28T13:45:14.941Z,87.60
2018-09-28T13:47:43.601Z,85.90
2018-09-28T13:50:12.159Z,88.50
2018-09-28T13:52:40.680Z,85.00
2018-09-28T13:55:09.127Z,84.60
2018-09-28T13:57:37.571Z,85.50
2018-09-28T14:00:06.329Z,85.70
2018-09-28T14:02:34.892Z,82.70
2018-09-28T14:05:03.592Z,83.60
2018-09-28T14:07:32.279Z,82.70
2018-09-28T14:10:00.711Z,82.10
2018-09-28T14:12:29.142Z,83.40
2018-09-28T14:14:57.563Z,83.90
2018-09-28T14:17:26.074Z,84.10
2018-09-28T14:19:54.553Z,85.00
2018-09-28T14:22:23.034Z,84.80
2018-09-28T14:24:51.673Z,83.90
2018-09-28T14:27:20.041Z,83.40
2018-09-28T14:29:48.733Z,83.70
2018-09-28T14:32:17.300Z,82.30
2018-09-28T14:34:45.802Z,83.80
2018-09-28T14:37:14.333Z,85.70
2018-09-28T14:39:42.791Z,85.40
2018-09-28T14:42:11.317Z,86.70
2018-09-28T14:44:39.674Z,85.80
2018-09-28T14:47:08.062Z,84.30
2018-09-28T14:49:36.571Z,84.00
2018-09-28T14:52:04.994Z,85.10
2018-09-28T14:54:33.454Z,84.30
2018-09-28T14:57:01.899Z,85.00
2018-09-28T14:59:30.347Z,85.90
2018-09-28T15:01:58.745Z,86.10
2018-09-28T15:04:27.256Z,86.40
2018-09-28T15:06:55.783Z,85.20
2018-09-28T15:09:24.064Z,86.00
2018-09-28T15:11:52.556Z,86.60
2018-09-28T15:14:21.192Z,88.20
2018-09-28T15:16:49.637Z,86.50
2018-09-28T15:19:19.111Z,88.10
2018-09-28T15:21:48.024Z,88.30
2018-09-28T15:24:16.467Z,87.40
2018-09-28T15:26:48.006Z,88.00
2018-09-28T15:29:16.602Z,87.80
2018-09-28T15:31:45.162Z,88.60
2018-09-28T15:34:13.746Z,89.20
2018-09-28T15:36:42.421Z,90.00
2018-09-28T15:39:12.684Z,90.20
2018-09-28T15:41:41.135Z,90.30
2018-09-28T15:44:09.645Z,90.50
2018-09-28T15:46:38.546Z,90.70
2018-09-28T15:49:07.091Z,90.80
2018-09-28T15:51:35.635Z,91.10
2018-09-28T15:54:04.098Z,91.60
2018-09-28T15:56:32.599Z,91.60
2018-09-28T15:59:01.009Z,91.90
2018-09-28T16:01:29.738Z,92.00
2018-09-28T16:03:58.883Z,92.00
2018-09-28T16:06:28.135Z,92.00
2018-09-28T16:08:56.702Z,92.30
2018-09-28T16:11:25.300Z,92.20
2018-09-28T16:13:54.812Z,92.10
2018-09-28T16:16:23.826Z,92.30
2018-09-28T16:18:52.800Z,92.40
2018-09-28T16:21:21.786Z,92.10
2018-09-28T16:23:50.679Z,92.40
2018-09-28T16:26:22.851Z,92.40
2018-09-28T16:28:54.438Z,92.30
2018-09-28T16:31:31.212Z,92.50
2018-09-28T16:34:00.535Z,92.30
2018-09-28T16:36:30.896Z,92.30
2018-09-28T16:39:00.075Z,92.40
2018-09-28T16:41:29.364Z,92.10
2018-09-28T16:43:58.577Z,91.50
2018-09-28T16:46:27.801Z,91.30
2018-09-28T16:48:57.086Z,90.10
2018-09-28T16:51:26.310Z,90.60
2018-09-28T16:53:55.536Z,90.70
2018-09-28T16:56:24.862Z,90.40
2018-09-28T16:58:54.224Z,90.30
2018-09-28T17:01:23.560Z,87.80
2018-09-28T17:03:52.743Z,87.70
2018-09-28T17:06:21.880Z,87.10
2018-09-28T17:08:51.022Z,86.50
2018-09-28T17:11:20.268Z,85.90
2018-09-28T17:13:49.379Z,86.40
2018-09-28T17:16:18.606Z,86.00
2018-09-28T17:18:47.887Z,86.20
2018-09-28T17:21:17.084Z,86.60
2018-09-28T17:23:45.527Z,86.90
2018-09-28T17:26:13.974Z,87.60
2018-09-28T17:28:42.457Z,89.60
2018-09-28T17:31:10.807Z,89.70
2018-09-28T17:33:39.265Z,90.30
2018-09-28T17:36:07.679Z,90.60
2018-09-28T17:38:36.713Z,91.10
2018-09-28T17:41:05.143Z,91.40
2018-09-28T17:43:33.556Z,91.80
2018-09-28T17:46:02.001Z,92.30
2018-09-28T17:48:30.446Z,92.60
2018-09-28T17:50:58.891Z,93.10
2018-09-28T17:53:27.351Z,93.70
2018-09-28T17:55:55.769Z,94.10
2018-09-28T17:58:24.350Z,94.80
2018-09-28T18:00:52.835Z,95.30
2018-09-28T18:03:21.249Z,95.60
2018-09-28T18:05:49.751Z,96.00
2018-09-28T18:08:18.202Z,96.60
2018-09-28T18:10:46.622Z,97.10
2018-09-28T18:13:15.066Z,97.60
2018-09-28T18:15:43.519Z,98.60
2018-09-28T18:18:13.708Z,98.90
2018-09-28T18:20:42.665Z,99.20
2018-09-28T18:23:11.110Z,99.50
2018-09-28T18:25:39.563Z,99.90
2018-09-28T18:28:08.031Z,99.90
2018-09-28T18:30:36.511Z,99.90
2018-09-28T18:33:05.034Z,99.90
2018-09-28T18:35:33.743Z,99.90
2018-09-28T18:38:02.238Z,99.90
2018-09-28T18:40:30.969Z,99.90
2018-09-28T18:42:59.449Z,99.90
2018-09-28T18:45:27.832Z,99.90
2018-09-28T18:47:56.600Z,99.90
2018-09-28T18:50:25.075Z,99.90
2018-09-28T18:52:53.507Z,99.90
2018-09-28T18:55:22.002Z,99.90
2018-09-28T18:57:50.577Z,99.90
2018-09-28T19:00:19.796Z,99.90
2018-09-28T19:02:48.693Z,99.90
2018-09-28T19:05:18.190Z,99.90
2018-09-28T19:07:49.565Z,99.90
2018-09-28T19:10:18.775Z,99.90
2018-09-28T19:12:47.608Z,99.90
2018-09-28T19:15:16.410Z,99.90
2018-09-28T19:17:44.973Z,99.90
2018-09-28T19:20:14.055Z,99.90
2018-09-28T19:22:42.896Z,99.90
2018-09-28T19:25:11.319Z,99.90
2018-09-28T19:27:39.747Z,99.90
2018-09-28T19:30:08.229Z,99.90
2018-09-28T19:32:36.756Z,99.90
2018-09-28T19:35:05.668Z,99.90
2018-09-28T19:37:34.099Z,99.90
2018-09-28T19:40:02.598Z,99.90
2018-09-28T19:42:30.975Z,99.90
2018-09-28T19:44:59.439Z,99.90
2018-09-28T19:47:27.943Z,99.90
2018-09-28T19:49:56.790Z,99.90
2018-09-28T19:52:25.324Z,99.90
2018-09-28T19:54:54.390Z,99.90
2018-09-28T19:57:22.793Z,99.90
2018-09-28T19:59:51.278Z,99.90
2018-09-28T20:02:19.708Z,99.90
2018-09-28T20:04:48.152Z,99.90
2018-09-28T20:07:16.647Z,99.90
2018-09-28T20:09:45.142Z,99.90
2018-09-28T20:12:13.610Z,99.90
2018-09-28T20:14:42.322Z,99.90
2018-09-28T20:17:10.799Z,99.90
2018-09-28T20:19:39.263Z,99.90
2018-09-28T20:22:10.275Z,99.90
2018-09-28T20:24:38.719Z,99.90
2018-09-28T20:27:07.248Z,99.90
2018-09-28T20:29:35.719Z,99.90
2018-09-28T20:32:04.227Z,99.90
2018-09-28T20:34:32.671Z,99.90
2018-09-28T20:37:01.115Z,99.90
2018-09-28T20:39:29.578Z,99.90
2018-09-28T20:41:58.006Z,99.90
2018-09-28T20:44:26.686Z,99.90
2018-09-28T20:46:55.145Z,99.90
2018-09-28T20:49:24.007Z,99.90
2018-09-28T20:51:52.786Z,99.90
2018-09-28T20:54:21.241Z,99.90
2018-09-28T20:56:49.677Z,99.90
2018-09-28T20:59:18.210Z,99.90
2018-09-28T21:01:46.638Z,99.90
2018-09-28T21:04:15.166Z,99.90
2018-09-28T21:06:43.601Z,99.90
2018-09-28T21:09:13.638Z,99.90
2018-09-28T21:11:42.127Z,99.90
2018-09-28T21:14:10.576Z,99.90
2018-09-28T21:16:39.034Z,99.90
2018-09-28T21:19:07.484Z,99.90
2018-09-28T21:21:35.925Z,99.90
2018-09-28T21:24:04.389Z,99.90
2018-09-28T21:26:32.898Z,99.90
2018-09-28T21:29:01.381Z,99.90
2018-09-28T21:31:29.753Z,99.90
2018-09-28T21:33:58.243Z,99.90
2018-09-28T21:36:27.617Z,99.90
2018-09-28T21:38:56.139Z,99.90
2018-09-28T21:41:24.602Z,99.90
2018-09-28T21:43:53.014Z,99.90
2018-09-28T21:46:21.456Z,99.90
2018-09-28T21:48:49.862Z,99.90
2018-09-28T21:51:18.350Z,99.90
2018-09-28T21:53:46.786Z,99.90
2018-09-28T21:56:15.225Z,99.90
2018-09-28T21:58:43.632Z,99.90
2018-09-28T22:01:16.288Z,99.90
2018-09-28T22:03:45.293Z,99.90
2018-09-28T22:06:13.755Z,99.90
2018-09-28T22:08:42.145Z,99.90
2018-09-28T22:11:10.632Z,99.90
2018-09-28T22:13:39.047Z,99.90
2018-09-28T22:16:07.806Z,99.90
2018-09-28T22:18:36.538Z,99.90
2018-09-28T22:21:05.119Z,99.90
2018-09-28T22:23:33.534Z,99.90
2018-09-28T22:26:02.004Z,99.90
2018-09-28T22:28:30.398Z,99.90
2018-09-28T22:30:58.838Z,99.90
2018-09-28T22:33:27.438Z,99.90
2018-09-28T22:35:55.912Z,99.90
2018-09-28T22:38:24.308Z,99.90
2018-09-28T22:40:52.737Z,99.90
2018-09-28T22:43:21.125Z,99.90
2018-09-28T22:45:49.530Z,99.90
2018-09-28T22:48:18.011Z,99.90
2018-09-28T22:50:46.528Z,99.90
2018-09-28T22:53:14.927Z,99.90
2018-09-28T22:55:43.678Z,99.90
2018-09-28T22:58:12.356Z,99.90
2018-09-28T23:00:40.780Z,99.90
2018-09-28T23:03:09.223Z,99.90
2018-09-28T23:05:37.738Z,99.90
2018-09-28T23:08:06.225Z,99.90
2018-09-28T23:10:34.696Z,99.90
2018-09-28T23:13:03.114Z,99.90
2018-09-28T23:15:31.559Z,99.90
2018-09-28T23:18:00.030Z,99.90
2018-09-28T23:20:28.461Z,99.90
2018-09-28T23:22:56.846Z,99.90
2018-09-28T23:25:25.271Z,99.90
2018-09-28T23:27:53.751Z,99.90
2018-09-28T23:30:22.187Z,99.90
2018-09-28T23:32:50.642Z,99.90
2018-09-28T23:35:19.069Z,99.90
2018-09-28T23:37:47.538Z,99.90
2018-09-28T23:40:15.927Z,99.90
2018-09-28T23:42:44.354Z,99.90
2018-09-28T23:45:12.731Z,99.90
2018-09-28T23:47:41.168Z,99.90
2018-09-28T23:50:09.566Z,99.90
2018-09-28T23:52:38.047Z,99.90
2018-09-28T23:55:07.162Z,99.90
2018-09-28T23:57:35.587Z,99.90
